sensor_id;sensor_type;location;lat;lon;timestamp;pressure;altitude;pressure_sealevel;temperature;humidity
6435;BME280;3250;42.694;23.278;2023-11-18T19:43:37;94677.75;;;4.29;79.60
6435;BME280;3250;42.694;23.278;2023-11-18T19:46:03;94688.84;;;4.46;78.69
6435;BME280;3250;42.694;23.278;2023-11-18T19:48:28;94674.75;;;4.55;77.87
6435;BME280;3250;42.694;23.278;2023-11-18T19:50:56;94701.72;;;4.77;76.70
6435;BME280;3250;42.694;23.278;2023-11-18T19:53:22;94706.66;;;4.86;76.38
6435;BME280;3250;42.694;23.278;2023-11-18T19:55:48;94704.09;;;5.01;75.92
6435;BME280;3250;42.694;23.278;2023-11-18T19:58:16;94690.31;;;5.07;75.26
6435;BME280;3250;42.694;23.278;2023-11-18T20:00:41;94698.03;;;5.15;75.44
6435;BME280;3250;42.694;23.278;2023-11-18T20:03:09;94700.91;;;5.20;74.63
6435;BME280;3250;42.694;23.278;2023-11-18T20:05:37;94679.84;;;5.22;74.84
6435;BME280;3250;42.694;23.278;2023-11-18T20:08:03;94694.50;;;5.38;74.30
6435;BME280;3250;42.694;23.278;2023-11-18T20:10:31;94691.97;;;5.44;74.09
6435;BME280;3250;42.694;23.278;2023-11-18T20:12:57;94693.00;;;5.64;73.09
6435;BME280;3250;42.694;23.278;2023-11-18T20:15:22;94692.69;;;5.74;72.91
6435;BME280;3250;42.694;23.278;2023-11-18T20:17:55;94694.38;;;5.82;72.04
6435;BME280;3250;42.694;23.278;2023-11-18T20:20:21;94684.91;;;5.81;72.19
6435;BME280;3250;42.694;23.278;2023-11-18T20:22:46;94692.97;;;5.79;72.22
6435;BME280;3250;42.694;23.278;2023-11-18T20:25:15;94696.47;;;5.72;72.45
6435;BME280;3250;42.694;23.278;2023-11-18T20:27:40;94690.53;;;5.78;72.87
6435;BME280;3250;42.694;23.278;2023-11-18T20:30:07;94689.16;;;5.60;72.58
6435;BME280;3250;42.694;23.278;2023-11-18T20:32:33;94680.50;;;5.81;72.83
6435;BME280;3250;42.694;23.278;2023-11-18T20:34:59;94679.59;;;5.89;72.83
6435;BME280;3250;42.694;23.278;2023-11-18T20:37:25;94670.81;;;5.75;72.19
6435;BME280;3250;42.694;23.278;2023-11-18T20:39:51;94673.47;;;5.82;72.86
6435;BME280;3250;42.694;23.278;2023-11-18T20:42:16;94654.22;;;5.83;72.56
6435;BME280;3250;42.694;23.278;2023-11-18T20:44:41;94669.25;;;5.95;72.47
6435;BME280;3250;42.694;23.278;2023-11-18T20:47:07;94666.19;;;5.92;72.19
6435;BME280;3250;42.694;23.278;2023-11-18T20:49:33;94685.59;;;6.04;72.36
6435;BME280;3250;42.694;23.278;2023-11-18T20:51:58;94667.91;;;6.06;72.19
6435;BME280;3250;42.694;23.278;2023-11-18T20:54:24;94669.53;;;6.07;72.24
6435;BME280;3250;42.694;23.278;2023-11-18T20:56:49;94669.84;;;5.97;71.69
6435;BME280;3250;42.694;23.278;2023-11-18T20:59:15;94666.63;;;5.95;72.13
6435;BME280;3250;42.694;23.278;2023-11-18T21:01:43;94671.84;;;5.95;72.54
6435;BME280;3250;42.694;23.278;2023-11-18T21:04:09;94673.84;;;5.93;72.49
6435;BME280;3250;42.694;23.278;2023-11-18T21:06:34;94681.91;;;5.98;72.13
6435;BME280;3250;42.694;23.278;2023-11-18T21:09:00;94685.97;;;6.01;72.21
6435;BME280;3250;42.694;23.278;2023-11-18T21:11:25;94679.88;;;5.94;72.67
6435;BME280;3250;42.694;23.278;2023-11-18T21:13:52;94672.78;;;6.09;72.27
6435;BME280;3250;42.694;23.278;2023-11-18T21:16:18;94676.25;;;6.16;71.93
6435;BME280;3250;42.694;23.278;2023-11-18T21:18:44;94690.13;;;6.17;70.98
6435;BME280;3250;42.694;23.278;2023-11-18T21:21:10;94680.06;;;6.14;71.16
6435;BME280;3250;42.694;23.278;2023-11-18T21:23:37;94688.69;;;6.35;71.28
6435;BME280;3250;42.694;23.278;2023-11-18T21:26:03;94674.88;;;6.20;70.92
6435;BME280;3250;42.694;23.278;2023-11-18T21:28:28;94696.19;;;6.45;70.92
6435;BME280;3250;42.694;23.278;2023-11-18T21:30:54;94680.47;;;6.38;70.49
6435;BME280;3250;42.694;23.278;2023-11-18T21:33:20;94683.44;;;6.35;69.98
6435;BME280;3250;42.694;23.278;2023-11-18T21:35:46;94685.06;;;6.36;71.17
6435;BME280;3250;42.694;23.278;2023-11-18T21:38:13;94677.31;;;6.22;71.08
6435;BME280;3250;42.694;23.278;2023-11-18T21:40:38;94681.03;;;6.34;70.79
6435;BME280;3250;42.694;23.278;2023-11-18T21:43:04;94667.47;;;6.24;71.07
6435;BME280;3250;42.694;23.278;2023-11-18T21:45:29;94679.66;;;6.17;71.37
6435;BME280;3250;42.694;23.278;2023-11-18T21:47:58;94684.34;;;6.21;71.56
6435;BME280;3250;42.694;23.278;2023-11-18T21:50:27;94696.16;;;6.17;71.72
6435;BME280;3250;42.694;23.278;2023-11-18T21:52:52;94693.03;;;6.07;71.40
